< < Back
Terminal Aerodrome Forecast


Current Version              Previous Versions:   1  2  3  4  5  6  7  8  9  

Terminal Aerodrome Forecast

797
FTUS42 KGSP 241400 AAA
TAFAND
TAF AMD
KAND 241414Z 2414/2512 06010G17KT P6SM SKC
     FM241800 11006KT P6SM FEW250
     FM242000 16006KT P6SM BKN250
     FM250500 11005KT P6SM BKN060
     FM250700 12005KT P6SM BKN019=



Latest METAR

818
SAUS70 KWBC 242200 RRD
MTRAND
METAR KAND 242156Z AUTO 24004KT 10SM CLR 24/05 A2998 RMK AO2 SLP144
T02440050


USA.gov is the U.S. government's official web portal to all federal, state and local government web resources and services.